• Join FlightAware (Why Join?)
  • Login
  • US Flag 
12:28PM EST


 

Airport Tracker/Info


-or-


 

Live Flight TrackerFlight Track Log ✈ N33068 ✈ 28-Nov-2013 ✈ KPMP - KAPF

Flight Track Log - Related Links

Times and Time Zones

All times are in EST time to prevent confusion due to time zone crossing. See the N33068 flight status page for this flight to view local times or setup timezone preferences in your user account.

Time Position Orientation Groundspeed Altitude Reporting Facility
EST Latitude Longitude Course Direction KTS MPH feet Rate Location/Type
01:00PM 26.2528 -80.6419 266° West 141 162 2,500  Level Miami Center
01:01PM 26.2497 -80.6811 265° West 141 162 2,500  Level Miami Center
01:02PM 26.2464 -80.7319 266° West 141 162 2,500 -60 Level Miami Center
01:03PM 26.2431 -80.7711 265° West 147 169 2,400  Descending Miami Center
01:04PM 26.2397 -80.8219 266° West 147 169 2,500  Climbing Miami Center
01:05PM 26.2094 -80.8152 266° West  Level Estimated
01:05PM 26.2386 -80.8661 268° West 147 169 2,500  Level Miami Center
01:06PM 26.2353 -80.9053 265° West 147 169 2,500  Level Miami Center
01:07PM 26.2319 -80.9514 265° West 147 169 2,500  Level Miami Center
01:08PM 26.2286 -80.9953 265° West 147 169 2,500  Level Miami Center
01:09PM 26.2253 -81.0439 266° West 140 161 2,500  Level Miami Center
01:10PM 26.2217 -81.0878 265° West 140 161 2,500  Level Miami Center
01:11PM 26.2186 -81.1292 265° West 140 161 2,500  Level Miami Center
01:12PM 26.2150 -81.1731 265° West 140 161 2,500  Level Miami Center
01:13PM 26.2119 -81.2122 265° West 140 161 2,600  Climbing Miami Center
01:14PM 26.2064 -81.2561 262° West 140 161 2,500  Descending Miami Center
01:15PM 26.2028 -81.3022 265° West 140 161 2,600  Climbing Miami Center
01:16PM 26.1975 -81.3436 262° West 140 161 2,600 -60 Level Miami Center
01:17PM 26.1919 -81.3875 262° West 145 167 2,500  Descending Miami Center
01:18PM 26.1883 -81.4314 265° West 145 167 2,600  Climbing Miami Center
01:19PM 26.1828 -81.4750 262° West 145 167 2,500 -60 Descending Miami Center
01:20PM 26.1772 -81.5189 262° West 145 167 2,500  Level Miami Center
01:21PM 26.1717 -81.5625 262° West 145 167 2,500  Level Miami Center
01:22PM 26.1661 -81.6086 262° West 145 167 2,500 -420 Level Miami Center
01:23PM 26.1564 -81.6544 257° West 145 167 1,700 -840 Descending Miami Center
01:25PM 26.1500 -81.7243 270° West  Level FlightAware Approximate
01:32PM 26.1500 -81.7667 270° West  Level FlightAware Approximate
01:33PM 26.1524 -81.7756 270° West  Level Estimated
01:34PM 26.1524 -81.7756 270° West  Level Estimated
01:35PM 26.1524 -81.7756 270° West  Level Estimated
01:36PM 26.1524 -81.7756 270° West  Level Estimated